Terminal Aerodrome Forecast
Issued by NWS Cleveland, OH

Home | Current Version | Previous Version | Text Only | Print | Product List | Glossary Off
Versions: 1 2 3 4 5 6 7 8 9 10 11 12 13 14

000
FTUS41 KCLE 221100
TAFCAK
TAF
KCAK 221129Z 2212/2312 24007KT P6SM BKN090
     FM221400 30010KT P6SM BKN090
     FM221600 32012G20KT P6SM SCT080
     FM230000 VRB05KT P6SM SKC=

USA.gov is the U.S. government's official web portal to all federal, state and local government web resources and services.